CheckWX is a tool to help pilots better visualize weather data.  It is not intended as a substitute for an official pre-flight weather briefing.

14:58:22 UTC

EDVE METAR
Braunschweig Wolfsburg Airport
Germany
Current

2 hours ago

EDVE 291250Z 04010KT 330V110 9999 -RA BKN015 04/M00 Q1026
Observed
Mar-29 @ 12:50 UTC
Wind
  • 040° at 10 KTS
Visibility
10,000+ meters
Flight Rules
MVFR
Conditions
Light Rain
Cloud Levels
  • Broken at 1,500' AGL
Temperature
C / 39°F
Dewpoint
C / 32°F
Humidity
75%
Altimeter
30.3" Hg
Pressure
1025.92 hPa
Previous

3 hours ago

EDVE 291220Z 04011KT 340V090 9999 SCT013 BKN017 03/M00 Q1026
Observed
Mar-29 @ 12:20 UTC
Wind
  • 040° at 11 KTS
Visibility
10,000+ meters
Flight Rules
MVFR
Cloud Levels
  • Scattered at 1,300' AGL
  • Broken at 1,700' AGL
Temperature
C / 37°F
Dewpoint
C / 32°F
Humidity
81%
Altimeter
30.3" Hg
Pressure
1025.92 hPa
Previous

3 hours ago

EDVE 291150Z 04009G22KT 320V100 9999 -RA BKN013 BKN021 03/01 Q1025
Observed
Mar-29 @ 11:50 UTC
Wind
  • 040° at 9 KTS
  • Gusting to 22 KTS
Visibility
10,000+ meters
Flight Rules
MVFR
Conditions
Light Rain
Cloud Levels
  • Broken at 1,300' AGL
  • Broken at 2,100' AGL
Temperature
C / 37°F
Dewpoint
C / 34°F
Humidity
87%
Altimeter
30.27" Hg
Pressure
1024.92 hPa